Stations météo

réclame
Mon MeteoGroup
Lampedusa, Italie (16490): Température de l'air & dewpoint: 17.10.2018 23:00:00 - 23.10.2018 23:00:00 (CEST)Lampedusa, Italie (16490): Vitesse du vent: 17.10.2018 23:00:00 - 23.10.2018 23:00:00 (CEST)Lampedusa, Italie (16490): Direction du vent: 17.10.2018 23:00:00 - 23.10.2018 23:00:00 (CEST)Lampedusa, Italie (16490): visibility: 17.10.2018 23:00:00 - 23.10.2018 23:00:00 (CEST)
Date & Time tt [°C] td [°C] ff [km/h] ff [knt] dd vv [km]
23.10.2018 23:00:00 - - - - - -
23.10.2018 22:00:00 21,0 16,0 48 26 N 10
23.10.2018 21:00:00 21,0 16,0 42 23 N 10
23.10.2018 20:00:00 22,0 15,0 44 24 N 10
23.10.2018 19:00:00 22,0 15,0 41 22 N 10
23.10.2018 18:00:00 21,0 15,0 41 22 N 10
23.10.2018 17:00:00 22,0 15,0 42 23 N 10
23.10.2018 16:00:00 22,0 14,0 39 21 N 10
23.10.2018 15:00:00 21,0 14,0 42 23 N 10
23.10.2018 14:00:00 21,0 13,0 44 24 N 10
23.10.2018 13:00:00 20,0 14,0 29 16 N 10
23.10.2018 12:00:00 20,0 13,0 28 15 N 10
23.10.2018 11:00:00 20,0 13,0 46 25 N 10
23.10.2018 10:00:00 20,0 14,0 48 26 NNW 10
23.10.2018 09:00:00 19,0 14,0 34 18 NNW 10
23.10.2018 08:00:00 17,0 14,0 28 15 NW 0,8
23.10.2018 07:00:00 19,0 13,0 34 18 NW 10
23.10.2018 06:00:00 19,0 14,0 35 19 WNW 10
23.10.2018 05:00:00 - - - - - -
23.10.2018 04:00:00 - - - - - -
23.10.2018 03:00:00 - - - - - -
23.10.2018 02:00:00 - - - - - -
23.10.2018 01:00:00 - - - - - -
23.10.2018 00:00:00 - - - - - -
22.10.2018 23:00:00 - - - - - -
22.10.2018 22:00:00 20,0 15,0 18 10 NNW 10
22.10.2018 21:00:00 21,0 16,0 18 10 NNW 10
22.10.2018 20:00:00 21,0 17,0 26 14 N 10
22.10.2018 19:00:00 21,0 16,0 21 11 NW 10
22.10.2018 18:00:00 22,0 17,0 13 7 NW 10
22.10.2018 17:00:00 22,0 17,0 15 8 NW 10
22.10.2018 16:00:00 20,0 18,0 24 13 NW 10
22.10.2018 15:00:00 23,0 17,0 21 11 NW 9
22.10.2018 14:00:00 24,0 17,0 22 12 NW 10
22.10.2018 13:00:00 24,0 18,0 24 13 WNW 10
22.10.2018 12:00:00 24,0 18,0 18 10 NW 10
22.10.2018 11:00:00 23,0 18,0 21 11 NW 10
22.10.2018 10:00:00 23,0 17,0 21 11 NW 10
22.10.2018 09:00:00 22,0 17,0 18 10 NW 10
22.10.2018 08:00:00 21,0 18,0 21 11 WNW 10
22.10.2018 07:00:00 21,0 18,0 15 8 WNW 10
22.10.2018 06:00:00 21,0 17,0 21 11 W 10
22.10.2018 05:00:00 - - - - - -
22.10.2018 04:00:00 - - - - - -
22.10.2018 03:00:00 - - - - - -
22.10.2018 02:00:00 - - - - - -
22.10.2018 01:00:00 - - - - - -
22.10.2018 00:00:00 - - - - - -
21.10.2018 23:00:00 - - - - - -
21.10.2018 22:00:00 22,0 18,0 5 3 SW 10
21.10.2018 21:00:00 22,0 18,0 4 2 W 10
21.10.2018 20:00:00 22,0 18,0 2 1 NW 10
21.10.2018 19:00:00 23,0 19,0 5 3 NNW 10
21.10.2018 18:00:00 23,0 19,0 9 5 NNW 10
21.10.2018 17:00:00 24,0 19,0 11 6 N 10
21.10.2018 16:00:00 24,0 19,0 8 4 NNW 10
21.10.2018 15:00:00 24,0 19,0 8 4 NNE 10
21.10.2018 14:00:00 24,0 19,0 8 4 NE 10
21.10.2018 13:00:00 24,0 19,0 5 3 N 10
21.10.2018 12:00:00 24,0 19,0 9 5 ENE 10
21.10.2018 11:00:00 24,0 19,0 8 4 ENE 10
21.10.2018 10:00:00 24,0 19,0 5 3 NNE 10
21.10.2018 09:00:00 23,0 19,0 11 6 NE 10
21.10.2018 08:00:00 23,0 19,0 9 5 NNE 10
21.10.2018 07:00:00 23,0 19,0 9 5 NNE 10
21.10.2018 06:00:00 23,0 19,0 11 6 ENE 10
21.10.2018 05:00:00 - - - - - -
21.10.2018 04:00:00 - - - - - -
21.10.2018 03:00:00 - - - - - -
21.10.2018 02:00:00 - - - - - -
21.10.2018 01:00:00 - - - - - -
21.10.2018 00:00:00 - - - - - -
20.10.2018 23:00:00 - - - - - -
20.10.2018 22:00:00 24,0 19,0 13 7 E 10
20.10.2018 21:00:00 24,0 19,0 18 10 ENE 10
20.10.2018 20:00:00 24,0 19,0 13 7 ENE 10
20.10.2018 19:00:00 24,0 19,0 16 9 ENE 10
20.10.2018 18:00:00 24,0 20,0 26 14 ENE 10
20.10.2018 17:00:00 24,0 20,0 26 14 ENE 10
20.10.2018 16:00:00 24,0 20,0 13 7 ENE 10
20.10.2018 15:00:00 24,0 20,0 18 10 ENE 10
20.10.2018 14:00:00 24,0 20,0 28 15 ENE 10
20.10.2018 13:00:00 24,0 20,0 22 12 ENE 10
20.10.2018 12:00:00 24,0 20,0 24 13 NE 10
20.10.2018 11:00:00 24,0 20,0 24 13 NE 9
20.10.2018 10:00:00 23,0 20,0 22 12 NE 10
20.10.2018 09:00:00 23,0 20,0 18 10 NE 9
20.10.2018 08:00:00 23,0 20,0 22 12 NNE 10
20.10.2018 07:00:00 23,0 19,0 15 8 NE 10
20.10.2018 06:00:00 23,0 19,0 16 9 NE 10
20.10.2018 05:00:00 - - - - - -
20.10.2018 04:00:00 - - - - - -
20.10.2018 03:00:00 - - - - - -
20.10.2018 02:00:00 - - - - - -
20.10.2018 01:00:00 - - - - - -
20.10.2018 00:00:00 - - - - - -
19.10.2018 23:00:00 - - - - - -
19.10.2018 22:00:00 23,0 17,0 8 4 E 10
19.10.2018 21:00:00 23,0 17,0 11 6 E 10
19.10.2018 20:00:00 23,0 17,0 8 4 E 10
19.10.2018 19:00:00 23,0 17,0 4 2 NE 10
19.10.2018 18:00:00 24,0 17,0 5 3 NNE 10
19.10.2018 17:00:00 24,0 17,0 8 4 NNE 10
19.10.2018 16:00:00 24,0 18,0 8 4 NE 10
19.10.2018 15:00:00 24,0 18,0 8 4 N 10
19.10.2018 14:00:00 25,0 17,0 5 3 NNW 10
19.10.2018 13:00:00 25,0 17,0 13 7 WSW 10
19.10.2018 12:00:00 25,0 17,0 9 5 WSW 10
19.10.2018 11:00:00 25,0 16,0 15 8 WNW 10
19.10.2018 10:00:00 24,0 17,0 9 5 NW 10
19.10.2018 09:00:00 23,0 18,0 5 3 W 10
19.10.2018 08:00:00 22,0 18,0 2 1 - 10
19.10.2018 07:00:00 22,0 18,0 4 2 ENE 10
19.10.2018 06:00:00 22,0 18,0 5 3 ESE 10
19.10.2018 05:00:00 - - - - - -
19.10.2018 04:00:00 - - - - - -
19.10.2018 03:00:00 - - - - - -
19.10.2018 02:00:00 - - - - - -
19.10.2018 01:00:00 - - - - - -
19.10.2018 00:00:00 - - - - - -
18.10.2018 23:00:00 - - - - - -
18.10.2018 22:00:00 21,0 14,0 21 11 SW 10
18.10.2018 21:00:00 23,0 17,0 9 5 ESE 10
18.10.2018 20:00:00 23,0 16,0 5 3 S 10
18.10.2018 19:00:00 23,0 17,0 5 3 SW 10
18.10.2018 18:00:00 23,0 16,0 13 7 WSW 10
18.10.2018 17:00:00 24,0 18,0 15 8 WSW 10
18.10.2018 16:00:00 24,0 18,0 15 8 SW 10
18.10.2018 15:00:00 24,0 18,0 21 11 WSW 10
18.10.2018 14:00:00 24,0 20,0 16 9 WSW 10
18.10.2018 13:00:00 25,0 19,0 22 12 SW 10
18.10.2018 12:00:00 25,0 20,0 24 13 SW 10
18.10.2018 11:00:00 25,0 20,0 24 13 SSW 10
18.10.2018 10:00:00 25,0 21,0 21 11 SSW 9
18.10.2018 09:00:00 25,0 23,0 34 18 SE 8
18.10.2018 08:00:00 25,0 22,0 35 19 SE 10
18.10.2018 07:00:00 25,0 22,0 39 21 ESE 7
18.10.2018 06:00:00 25,0 22,0 39 21 SE 7
18.10.2018 05:00:00 - - - - - -
18.10.2018 04:00:00 - - - - - -
18.10.2018 03:00:00 - - - - - -
18.10.2018 02:00:00 - - - - - -
18.10.2018 01:00:00 - - - - - -
18.10.2018 00:00:00 - - - - - -
17.10.2018 23:00:00 - - - - - -

tt = Température de l'air
td = dewpoint
ff = Vitesse du vent
dd = Direction du vent
vv = visibility

stations d'obs. à proximité